sensor_id;sensor_type;location;lat;lon;timestamp;temperature;humidity
67899;DHT22;54699;51.796;10.956;2023-07-24T00:00:05;23.90;52.90
67899;DHT22;54699;51.796;10.956;2023-07-24T00:02:34;23.80;52.90
67899;DHT22;54699;51.796;10.956;2023-07-24T00:05:01;23.90;53.10
67899;DHT22;54699;51.796;10.956;2023-07-24T00:07:28;23.90;53.00
67899;DHT22;54699;51.796;10.956;2023-07-24T00:09:55;23.90;53.10
67899;DHT22;54699;51.796;10.956;2023-07-24T00:12:22;23.90;53.20
67899;DHT22;54699;51.796;10.956;2023-07-24T00:14:49;23.90;53.30
67899;DHT22;54699;51.796;10.956;2023-07-24T00:17:18;23.90;53.20
67899;DHT22;54699;51.796;10.956;2023-07-24T00:19:46;23.80;53.20
67899;DHT22;54699;51.796;10.956;2023-07-24T00:22:13;23.90;53.30
67899;DHT22;54699;51.796;10.956;2023-07-24T00:24:40;23.80;53.30
67899;DHT22;54699;51.796;10.956;2023-07-24T00:27:07;23.80;53.30
67899;DHT22;54699;51.796;10.956;2023-07-24T00:29:34;23.80;53.30
67899;DHT22;54699;51.796;10.956;2023-07-24T00:32:00;23.80;53.30
67899;DHT22;54699;51.796;10.956;2023-07-24T00:34:27;23.80;53.30
67899;DHT22;54699;51.796;10.956;2023-07-24T00:36:56;23.80;53.40
67899;DHT22;54699;51.796;10.956;2023-07-24T00:39:22;23.80;54.20
67899;DHT22;54699;51.796;10.956;2023-07-24T00:41:49;23.80;53.50
67899;DHT22;54699;51.796;10.956;2023-07-24T00:44:18;23.80;53.40
67899;DHT22;54699;51.796;10.956;2023-07-24T00:46:45;23.80;53.40
67899;DHT22;54699;51.796;10.956;2023-07-24T00:49:14;23.80;53.40
67899;DHT22;54699;51.796;10.956;2023-07-24T00:51:42;23.80;53.40
67899;DHT22;54699;51.796;10.956;2023-07-24T00:54:11;23.80;53.40
67899;DHT22;54699;51.796;10.956;2023-07-24T00:56:38;23.80;53.40
67899;DHT22;54699;51.796;10.956;2023-07-24T00:59:05;23.80;53.50
67899;DHT22;54699;51.796;10.956;2023-07-24T01:01:32;23.80;53.50
67899;DHT22;54699;51.796;10.956;2023-07-24T01:04:03;23.80;53.40
67899;DHT22;54699;51.796;10.956;2023-07-24T01:06:32;23.80;53.50
67899;DHT22;54699;51.796;10.956;2023-07-24T01:08:59;23.80;53.50
67899;DHT22;54699;51.796;10.956;2023-07-24T01:11:28;23.80;53.50
67899;DHT22;54699;51.796;10.956;2023-07-24T01:14:09;23.80;53.50
67899;DHT22;54699;51.796;10.956;2023-07-24T01:16:41;23.80;53.50
67899;DHT22;54699;51.796;10.956;2023-07-24T01:19:11;23.80;53.50
67899;DHT22;54699;51.796;10.956;2023-07-24T01:21:44;23.80;53.40
67899;DHT22;54699;51.796;10.956;2023-07-24T01:24:29;23.80;53.40
67899;DHT22;54699;51.796;10.956;2023-07-24T01:27:01;23.80;53.40
67899;DHT22;54699;51.796;10.956;2023-07-24T01:29:28;23.80;53.40
67899;DHT22;54699;51.796;10.956;2023-07-24T01:31:55;23.80;53.50
67899;DHT22;54699;51.796;10.956;2023-07-24T01:34:22;23.80;53.50
67899;DHT22;54699;51.796;10.956;2023-07-24T01:36:49;23.80;53.40
67899;DHT22;54699;51.796;10.956;2023-07-24T01:39:17;23.80;53.50
67899;DHT22;54699;51.796;10.956;2023-07-24T01:41:46;23.80;54.40
67899;DHT22;54699;51.796;10.956;2023-07-24T01:44:15;23.80;53.40
67899;DHT22;54699;51.796;10.956;2023-07-24T01:46:42;23.80;53.50
67899;DHT22;54699;51.796;10.956;2023-07-24T01:49:10;23.80;53.60
67899;DHT22;54699;51.796;10.956;2023-07-24T01:51:37;23.80;53.50
67899;DHT22;54699;51.796;10.956;2023-07-24T01:54:04;23.80;53.50
67899;DHT22;54699;51.796;10.956;2023-07-24T01:56:30;23.80;53.50
67899;DHT22;54699;51.796;10.956;2023-07-24T01:58:57;23.80;53.60
67899;DHT22;54699;51.796;10.956;2023-07-24T02:01:26;23.80;53.50
67899;DHT22;54699;51.796;10.956;2023-07-24T02:03:53;23.80;53.50
67899;DHT22;54699;51.796;10.956;2023-07-24T02:06:20;23.80;53.50
67899;DHT22;54699;51.796;10.956;2023-07-24T02:08:47;23.80;53.60
67899;DHT22;54699;51.796;10.956;2023-07-24T02:11:14;23.80;53.50
67899;DHT22;54699;51.796;10.956;2023-07-24T02:13:42;23.70;53.50
67899;DHT22;54699;51.796;10.956;2023-07-24T02:16:10;23.80;53.50
67899;DHT22;54699;51.796;10.956;2023-07-24T02:18:38;23.80;53.60
67899;DHT22;54699;51.796;10.956;2023-07-24T02:21:09;23.80;53.50
67899;DHT22;54699;51.796;10.956;2023-07-24T02:23:36;23.80;53.60
67899;DHT22;54699;51.796;10.956;2023-07-24T02:26:03;23.80;53.60
67899;DHT22;54699;51.796;10.956;2023-07-24T02:28:30;23.70;53.50
67899;DHT22;54699;51.796;10.956;2023-07-24T02:30:57;23.70;53.50
67899;DHT22;54699;51.796;10.956;2023-07-24T02:33:25;23.70;53.50
67899;DHT22;54699;51.796;10.956;2023-07-24T02:35:53;23.70;53.50
67899;DHT22;54699;51.796;10.956;2023-07-24T02:38:20;23.70;53.60
67899;DHT22;54699;51.796;10.956;2023-07-24T02:40:47;23.70;53.60
67899;DHT22;54699;51.796;10.956;2023-07-24T02:43:14;23.70;53.60
67899;DHT22;54699;51.796;10.956;2023-07-24T02:45:41;23.70;53.60
67899;DHT22;54699;51.796;10.956;2023-07-24T02:48:08;23.70;53.50
67899;DHT22;54699;51.796;10.956;2023-07-24T02:50:35;23.70;53.60
67899;DHT22;54699;51.796;10.956;2023-07-24T02:53:03;23.70;53.60
67899;DHT22;54699;51.796;10.956;2023-07-24T02:55:30;23.70;53.60
67899;DHT22;54699;51.796;10.956;2023-07-24T02:57:57;23.70;53.60
67899;DHT22;54699;51.796;10.956;2023-07-24T03:00:24;23.70;53.60
67899;DHT22;54699;51.796;10.956;2023-07-24T03:02:51;23.70;53.50
67899;DHT22;54699;51.796;10.956;2023-07-24T03:05:18;23.70;53.60
67899;DHT22;54699;51.796;10.956;2023-07-24T03:07:45;23.70;53.60
67899;DHT22;54699;51.796;10.956;2023-07-24T03:10:13;23.70;53.60
67899;DHT22;54699;51.796;10.956;2023-07-24T03:12:40;23.70;53.60
67899;DHT22;54699;51.796;10.956;2023-07-24T03:15:07;23.70;53.60
67899;DHT22;54699;51.796;10.956;2023-07-24T03:17:34;23.70;53.60
67899;DHT22;54699;51.796;10.956;2023-07-24T03:20:07;23.70;53.60
67899;DHT22;54699;51.796;10.956;2023-07-24T03:22:35;23.70;53.70
67899;DHT22;54699;51.796;10.956;2023-07-24T03:25:02;23.70;53.70
67899;DHT22;54699;51.796;10.956;2023-07-24T03:27:31;23.70;54.50
67899;DHT22;54699;51.796;10.956;2023-07-24T03:29:58;23.70;53.60
67899;DHT22;54699;51.796;10.956;2023-07-24T03:32:24;23.70;53.60
67899;DHT22;54699;51.796;10.956;2023-07-24T03:34:52;23.70;53.60
67899;DHT22;54699;51.796;10.956;2023-07-24T03:37:19;23.70;53.70
67899;DHT22;54699;51.796;10.956;2023-07-24T03:39:46;23.70;53.70
67899;DHT22;54699;51.796;10.956;2023-07-24T03:42:23;23.70;53.70
67899;DHT22;54699;51.796;10.956;2023-07-24T03:44:53;23.70;53.60
67899;DHT22;54699;51.796;10.956;2023-07-24T03:47:20;23.70;53.60
67899;DHT22;54699;51.796;10.956;2023-07-24T03:49:47;23.70;53.60
67899;DHT22;54699;51.796;10.956;2023-07-24T03:52:14;23.70;53.70
67899;DHT22;54699;51.796;10.956;2023-07-24T03:54:41;23.70;53.70
67899;DHT22;54699;51.796;10.956;2023-07-24T03:57:08;23.70;53.60
67899;DHT22;54699;51.796;10.956;2023-07-24T03:59:35;23.70;53.70
67899;DHT22;54699;51.796;10.956;2023-07-24T04:02:04;23.60;53.70
67899;DHT22;54699;51.796;10.956;2023-07-24T04:04:31;23.70;53.70
67899;DHT22;54699;51.796;10.956;2023-07-24T04:06:58;23.70;53.70
67899;DHT22;54699;51.796;10.956;2023-07-24T04:09:26;23.70;53.60
67899;DHT22;54699;51.796;10.956;2023-07-24T04:11:53;23.60;53.70
67899;DHT22;54699;51.796;10.956;2023-07-24T04:14:20;23.60;53.70
67899;DHT22;54699;51.796;10.956;2023-07-24T04:16:47;23.60;53.70
67899;DHT22;54699;51.796;10.956;2023-07-24T04:19:15;23.50;53.70
67899;DHT22;54699;51.796;10.956;2023-07-24T04:21:42;23.40;54.10
67899;DHT22;54699;51.796;10.956;2023-07-24T04:24:09;23.30;54.30
67899;DHT22;54699;51.796;10.956;2023-07-24T04:26:36;23.20;54.70
67899;DHT22;54699;51.796;10.956;2023-07-24T04:29:04;23.10;55.00
67899;DHT22;54699;51.796;10.956;2023-07-24T04:31:31;23.00;55.20
67899;DHT22;54699;51.796;10.956;2023-07-24T04:33:58;23.00;55.30
67899;DHT22;54699;51.796;10.956;2023-07-24T04:36:27;22.90;55.40
67899;DHT22;54699;51.796;10.956;2023-07-24T04:38:54;22.90;55.80
67899;DHT22;54699;51.796;10.956;2023-07-24T04:41:21;22.80;56.00
67899;DHT22;54699;51.796;10.956;2023-07-24T04:43:48;22.80;56.10
67899;DHT22;54699;51.796;10.956;2023-07-24T04:46:15;22.80;56.10
67899;DHT22;54699;51.796;10.956;2023-07-24T04:48:42;22.80;56.30
67899;DHT22;54699;51.796;10.956;2023-07-24T04:51:09;22.70;56.50
67899;DHT22;54699;51.796;10.956;2023-07-24T04:53:37;22.60;56.80
67899;DHT22;54699;51.796;10.956;2023-07-24T04:56:04;22.60;56.80
67899;DHT22;54699;51.796;10.956;2023-07-24T04:58:31;22.70;56.70
67899;DHT22;54699;51.796;10.956;2023-07-24T05:01:01;22.70;56.30
67899;DHT22;54699;51.796;10.956;2023-07-24T05:03:29;22.70;56.50
67899;DHT22;54699;51.796;10.956;2023-07-24T05:05:56;22.90;56.40
67899;DHT22;54699;51.796;10.956;2023-07-24T05:08:23;22.90;56.20
67899;DHT22;54699;51.796;10.956;2023-07-24T05:10:54;23.00;56.10
67899;DHT22;54699;51.796;10.956;2023-07-24T05:13:22;22.80;56.10
67899;DHT22;54699;51.796;10.956;2023-07-24T05:15:49;22.80;57.30
67899;DHT22;54699;51.796;10.956;2023-07-24T05:18:16;22.80;56.40
67899;DHT22;54699;51.796;10.956;2023-07-24T05:20:44;23.00;56.20
67899;DHT22;54699;51.796;10.956;2023-07-24T05:23:12;22.90;56.30
67899;DHT22;54699;51.796;10.956;2023-07-24T05:25:39;22.90;56.10
67899;DHT22;54699;51.796;10.956;2023-07-24T05:28:08;23.00;56.10
67899;DHT22;54699;51.796;10.956;2023-07-24T05:30:35;23.10;56.00
67899;DHT22;54699;51.796;10.956;2023-07-24T05:33:02;23.10;56.00
67899;DHT22;54699;51.796;10.956;2023-07-24T05:35:29;23.10;55.90
67899;DHT22;54699;51.796;10.956;2023-07-24T05:37:56;23.10;55.80
67899;DHT22;54699;51.796;10.956;2023-07-24T05:40:23;23.00;56.10
67899;DHT22;54699;51.796;10.956;2023-07-24T05:42:50;23.00;56.00
67899;DHT22;54699;51.796;10.956;2023-07-24T05:45:18;23.10;56.00
67899;DHT22;54699;51.796;10.956;2023-07-24T05:47:45;23.00;56.10
67899;DHT22;54699;51.796;10.956;2023-07-24T05:50:12;23.00;56.20
67899;DHT22;54699;51.796;10.956;2023-07-24T05:52:39;23.00;56.40
67899;DHT22;54699;51.796;10.956;2023-07-24T05:55:07;22.90;56.40
67899;DHT22;54699;51.796;10.956;2023-07-24T05:57:35;22.90;56.60
67899;DHT22;54699;51.796;10.956;2023-07-24T06:00:02;23.00;56.40
67899;DHT22;54699;51.796;10.956;2023-07-24T06:02:31;23.00;56.40
67899;DHT22;54699;51.796;10.956;2023-07-24T06:04:58;22.90;56.40
67899;DHT22;54699;51.796;10.956;2023-07-24T06:07:25;22.90;56.50
67899;DHT22;54699;51.796;10.956;2023-07-24T06:09:52;23.00;56.50
67899;DHT22;54699;51.796;10.956;2023-07-24T06:12:19;23.00;56.20
67899;DHT22;54699;51.796;10.956;2023-07-24T06:14:46;23.00;56.20
67899;DHT22;54699;51.796;10.956;2023-07-24T06:17:12;23.00;56.20
67899;DHT22;54699;51.796;10.956;2023-07-24T06:19:41;22.80;56.40
67899;DHT22;54699;51.796;10.956;2023-07-24T06:22:08;23.00;56.30
67899;DHT22;54699;51.796;10.956;2023-07-24T06:24:35;22.90;56.20
67899;DHT22;54699;51.796;10.956;2023-07-24T06:27:02;22.90;56.40
67899;DHT22;54699;51.796;10.956;2023-07-24T06:29:29;22.70;56.60
67899;DHT22;54699;51.796;10.956;2023-07-24T06:31:56;22.70;56.80
67899;DHT22;54699;51.796;10.956;2023-07-24T06:34:23;22.60;56.90
67899;DHT22;54699;51.796;10.956;2023-07-24T06:36:51;22.70;56.70
67899;DHT22;54699;51.796;10.956;2023-07-24T06:39:18;22.90;56.50
67899;DHT22;54699;51.796;10.956;2023-07-24T06:41:46;22.90;56.40
67899;DHT22;54699;51.796;10.956;2023-07-24T06:44:13;22.80;56.30
67899;DHT22;54699;51.796;10.956;2023-07-24T06:46:40;22.80;56.50
67899;DHT22;54699;51.796;10.956;2023-07-24T06:49:07;22.80;56.50
67899;DHT22;54699;51.796;10.956;2023-07-24T06:51:35;22.80;56.60
67899;DHT22;54699;51.796;10.956;2023-07-24T06:54:04;22.70;56.80
67899;DHT22;54699;51.796;10.956;2023-07-24T06:56:31;22.80;56.80
67899;DHT22;54699;51.796;10.956;2023-07-24T06:58:58;22.70;56.70
67899;DHT22;54699;51.796;10.956;2023-07-24T07:01:25;22.70;56.70
67899;DHT22;54699;51.796;10.956;2023-07-24T07:03:52;22.80;56.40
67899;DHT22;54699;51.796;10.956;2023-07-24T07:06:19;22.80;56.50
67899;DHT22;54699;51.796;10.956;2023-07-24T07:08:46;22.80;56.50
67899;DHT22;54699;51.796;10.956;2023-07-24T07:11:14;22.80;56.70
67899;DHT22;54699;51.796;10.956;2023-07-24T07:13:41;22.80;56.50
67899;DHT22;54699;51.796;10.956;2023-07-24T07:16:08;22.80;56.40
67899;DHT22;54699;51.796;10.956;2023-07-24T07:18:35;22.80;56.60
67899;DHT22;54699;51.796;10.956;2023-07-24T07:21:02;22.70;56.80
67899;DHT22;54699;51.796;10.956;2023-07-24T07:23:29;22.70;56.80
67899;DHT22;54699;51.796;10.956;2023-07-24T07:25:56;22.70;56.70
67899;DHT22;54699;51.796;10.956;2023-07-24T07:28:27;22.70;56.70
67899;DHT22;54699;51.796;10.956;2023-07-24T07:30:54;22.70;56.40
67899;DHT22;54699;51.796;10.956;2023-07-24T07:33:21;22.70;56.50
67899;DHT22;54699;51.796;10.956;2023-07-24T07:35:49;22.70;56.50
67899;DHT22;54699;51.796;10.956;2023-07-24T07:38:16;22.60;56.60
67899;DHT22;54699;51.796;10.956;2023-07-24T07:40:43;22.70;56.70
67899;DHT22;54699;51.796;10.956;2023-07-24T07:43:12;22.60;56.70
67899;DHT22;54699;51.796;10.956;2023-07-24T07:45:40;22.60;56.70
67899;DHT22;54699;51.796;10.956;2023-07-24T07:48:07;22.60;56.70
67899;DHT22;54699;51.796;10.956;2023-07-24T07:50:33;22.70;56.70
67899;DHT22;54699;51.796;10.956;2023-07-24T07:53:00;22.90;56.30
67899;DHT22;54699;51.796;10.956;2023-07-24T07:55:27;22.90;56.20
67899;DHT22;54699;51.796;10.956;2023-07-24T07:57:54;23.00;56.20
67899;DHT22;54699;51.796;10.956;2023-07-24T08:00:21;23.00;56.10
67899;DHT22;54699;51.796;10.956;2023-07-24T08:02:49;23.10;56.10
67899;DHT22;54699;51.796;10.956;2023-07-24T08:05:17;23.10;56.00
67899;DHT22;54699;51.796;10.956;2023-07-24T08:07:44;23.10;55.70
67899;DHT22;54699;51.796;10.956;2023-07-24T08:10:11;23.10;55.40
67899;DHT22;54699;51.796;10.956;2023-07-24T08:12:40;23.10;55.30
67899;DHT22;54699;51.796;10.956;2023-07-24T08:15:08;23.10;55.20
67899;DHT22;54699;51.796;10.956;2023-07-24T08:17:35;23.20;55.70
67899;DHT22;54699;51.796;10.956;2023-07-24T08:20:04;23.30;55.50
67899;DHT22;54699;51.796;10.956;2023-07-24T08:22:32;23.30;55.60
67899;DHT22;54699;51.796;10.956;2023-07-24T08:24:59;23.30;55.60
67899;DHT22;54699;51.796;10.956;2023-07-24T08:27:26;23.40;55.30
67899;DHT22;54699;51.796;10.956;2023-07-24T08:29:53;23.40;54.80
67899;DHT22;54699;51.796;10.956;2023-07-24T08:32:20;23.30;54.60
67899;DHT22;54699;51.796;10.956;2023-07-24T08:34:47;23.30;54.30
67899;DHT22;54699;51.796;10.956;2023-07-24T08:37:15;23.40;54.30
67899;DHT22;54699;51.796;10.956;2023-07-24T08:39:42;23.40;54.70
67899;DHT22;54699;51.796;10.956;2023-07-24T08:42:09;23.40;54.70
67899;DHT22;54699;51.796;10.956;2023-07-24T08:44:37;23.50;54.40
67899;DHT22;54699;51.796;10.956;2023-07-24T08:47:05;23.50;54.50
67899;DHT22;54699;51.796;10.956;2023-07-24T08:49:36;23.50;54.30
67899;DHT22;54699;51.796;10.956;2023-07-24T08:52:05;23.50;54.40
67899;DHT22;54699;51.796;10.956;2023-07-24T08:54:35;23.50;54.00
67899;DHT22;54699;51.796;10.956;2023-07-24T08:57:04;23.50;53.50
67899;DHT22;54699;51.796;10.956;2023-07-24T08:59:33;23.60;53.30
67899;DHT22;54699;51.796;10.956;2023-07-24T09:02:00;23.60;53.00
67899;DHT22;54699;51.796;10.956;2023-07-24T09:04:28;23.60;53.40
67899;DHT22;54699;51.796;10.956;2023-07-24T09:06:56;23.60;53.20
67899;DHT22;54699;51.796;10.956;2023-07-24T09:09:28;23.60;54.00
67899;DHT22;54699;51.796;10.956;2023-07-24T09:11:57;23.60;53.70
67899;DHT22;54699;51.796;10.956;2023-07-24T09:14:25;23.60;53.20
67899;DHT22;54699;51.796;10.956;2023-07-24T09:17:04;23.70;53.20
67899;DHT22;54699;51.796;10.956;2023-07-24T09:19:32;23.70;53.10
67899;DHT22;54699;51.796;10.956;2023-07-24T09:22:09;23.70;52.60
67899;DHT22;54699;51.796;10.956;2023-07-24T09:24:36;23.70;52.30
67899;DHT22;54699;51.796;10.956;2023-07-24T09:27:06;23.70;51.90
67899;DHT22;54699;51.796;10.956;2023-07-24T09:29:35;23.80;51.90
67899;DHT22;54699;51.796;10.956;2023-07-24T09:32:02;23.80;51.90
67899;DHT22;54699;51.796;10.956;2023-07-24T09:34:31;23.80;51.70
67899;DHT22;54699;51.796;10.956;2023-07-24T09:36:59;23.80;51.80
67899;DHT22;54699;51.796;10.956;2023-07-24T09:39:26;23.80;51.90
67899;DHT22;54699;51.796;10.956;2023-07-24T09:41:53;23.80;51.40
67899;DHT22;54699;51.796;10.956;2023-07-24T09:44:31;23.90;51.50
67899;DHT22;54699;51.796;10.956;2023-07-24T09:46:58;23.90;51.40
67899;DHT22;54699;51.796;10.956;2023-07-24T09:49:26;23.80;51.00
67899;DHT22;54699;51.796;10.956;2023-07-24T09:51:53;23.90;51.20
67899;DHT22;54699;51.796;10.956;2023-07-24T09:54:25;23.90;51.40
67899;DHT22;54699;51.796;10.956;2023-07-24T09:56:54;23.90;51.20
67899;DHT22;54699;51.796;10.956;2023-07-24T09:59:23;23.90;51.30
67899;DHT22;54699;51.796;10.956;2023-07-24T10:01:57;23.90;51.20
67899;DHT22;54699;51.796;10.956;2023-07-24T10:04:25;24.00;51.00
67899;DHT22;54699;51.796;10.956;2023-07-24T10:06:52;24.00;50.90
67899;DHT22;54699;51.796;10.956;2023-07-24T10:09:20;24.00;50.90
67899;DHT22;54699;51.796;10.956;2023-07-24T10:11:49;24.00;50.80
67899;DHT22;54699;51.796;10.956;2023-07-24T10:14:16;24.10;50.90
67899;DHT22;54699;51.796;10.956;2023-07-24T10:16:44;24.10;50.80
67899;DHT22;54699;51.796;10.956;2023-07-24T10:19:19;24.10;50.40
67899;DHT22;54699;51.796;10.956;2023-07-24T10:21:49;24.10;49.90
67899;DHT22;54699;51.796;10.956;2023-07-24T10:24:18;24.10;49.80
67899;DHT22;54699;51.796;10.956;2023-07-24T10:26:49;24.10;49.70
67899;DHT22;54699;51.796;10.956;2023-07-24T10:29:16;24.20;49.80
67899;DHT22;54699;51.796;10.956;2023-07-24T10:31:52;24.20;49.80
67899;DHT22;54699;51.796;10.956;2023-07-24T10:34:21;24.20;49.60
67899;DHT22;54699;51.796;10.956;2023-07-24T10:36:47;24.20;49.50
67899;DHT22;54699;51.796;10.956;2023-07-24T10:39:15;24.20;49.40
67899;DHT22;54699;51.796;10.956;2023-07-24T10:41:44;24.20;49.20
67899;DHT22;54699;51.796;10.956;2023-07-24T10:44:12;24.20;49.20
67899;DHT22;54699;51.796;10.956;2023-07-24T10:46:40;24.20;49.00
67899;DHT22;54699;51.796;10.956;2023-07-24T10:49:09;24.20;49.20
67899;DHT22;54699;51.796;10.956;2023-07-24T10:51:37;24.20;49.20
67899;DHT22;54699;51.796;10.956;2023-07-24T10:54:04;24.20;49.00
67899;DHT22;54699;51.796;10.956;2023-07-24T10:56:32;24.20;48.90
67899;DHT22;54699;51.796;10.956;2023-07-24T10:59:02;24.30;48.90
67899;DHT22;54699;51.796;10.956;2023-07-24T11:01:30;24.30;48.70
67899;DHT22;54699;51.796;10.956;2023-07-24T11:03:58;24.30;49.50
67899;DHT22;54699;51.796;10.956;2023-07-24T11:06:26;24.20;49.00
67899;DHT22;54699;51.796;10.956;2023-07-24T11:08:56;24.30;49.00
67899;DHT22;54699;51.796;10.956;2023-07-24T11:11:28;24.20;48.60
67899;DHT22;54699;51.796;10.956;2023-07-24T11:13:55;24.20;48.70
67899;DHT22;54699;51.796;10.956;2023-07-24T11:16:22;24.30;48.40
67899;DHT22;54699;51.796;10.956;2023-07-24T11:18:50;24.20;48.50
67899;DHT22;54699;51.796;10.956;2023-07-24T11:21:18;24.20;48.80
67899;DHT22;54699;51.796;10.956;2023-07-24T11:23:48;24.20;48.50
67899;DHT22;54699;51.796;10.956;2023-07-24T11:26:19;24.20;48.70
67899;DHT22;54699;51.796;10.956;2023-07-24T11:28:47;24.10;48.50
67899;DHT22;54699;51.796;10.956;2023-07-24T11:31:15;24.10;48.80
67899;DHT22;54699;51.796;10.956;2023-07-24T11:33:45;24.10;48.70
67899;DHT22;54699;51.796;10.956;2023-07-24T11:36:15;24.10;48.80
67899;DHT22;54699;51.796;10.956;2023-07-24T11:38:44;24.10;48.70
67899;DHT22;54699;51.796;10.956;2023-07-24T11:41:11;24.10;48.70
67899;DHT22;54699;51.796;10.956;2023-07-24T11:43:45;24.10;48.60
67899;DHT22;54699;51.796;10.956;2023-07-24T11:46:22;24.10;48.80
67899;DHT22;54699;51.796;10.956;2023-07-24T11:48:50;24.10;48.90
67899;DHT22;54699;51.796;10.956;2023-07-24T11:51:19;24.10;49.00
67899;DHT22;54699;51.796;10.956;2023-07-24T11:53:50;24.10;48.90
67899;DHT22;54699;51.796;10.956;2023-07-24T11:56:17;24.10;48.80
67899;DHT22;54699;51.796;10.956;2023-07-24T11:58:48;24.10;48.90
67899;DHT22;54699;51.796;10.956;2023-07-24T12:01:15;24.10;48.90
67899;DHT22;54699;51.796;10.956;2023-07-24T12:03:42;24.10;48.90
67899;DHT22;54699;51.796;10.956;2023-07-24T12:06:13;24.10;50.00
67899;DHT22;54699;51.796;10.956;2023-07-24T12:08:41;24.10;49.10
67899;DHT22;54699;51.796;10.956;2023-07-24T12:11:15;24.10;49.20
67899;DHT22;54699;51.796;10.956;2023-07-24T12:13:43;24.10;49.10
67899;DHT22;54699;51.796;10.956;2023-07-24T12:16:12;24.10;49.10
67899;DHT22;54699;51.796;10.956;2023-07-24T12:18:39;24.00;49.20
67899;DHT22;54699;51.796;10.956;2023-07-24T12:21:06;24.00;49.30
67899;DHT22;54699;51.796;10.956;2023-07-24T12:23:33;24.00;49.30
67899;DHT22;54699;51.796;10.956;2023-07-24T12:26:00;24.00;49.40
67899;DHT22;54699;51.796;10.956;2023-07-24T12:28:27;24.00;49.30
67899;DHT22;54699;51.796;10.956;2023-07-24T12:30:54;24.00;49.40
67899;DHT22;54699;51.796;10.956;2023-07-24T12:33:22;24.00;49.40
67899;DHT22;54699;51.796;10.956;2023-07-24T12:35:49;24.00;49.50
67899;DHT22;54699;51.796;10.956;2023-07-24T12:38:16;24.00;49.70
67899;DHT22;54699;51.796;10.956;2023-07-24T12:40:43;24.00;50.10
67899;DHT22;54699;51.796;10.956;2023-07-24T12:43:10;24.00;50.60
67899;DHT22;54699;51.796;10.956;2023-07-24T12:45:38;24.10;51.20
67899;DHT22;54699;51.796;10.956;2023-07-24T12:48:05;24.10;51.00
67899;DHT22;54699;51.796;10.956;2023-07-24T12:50:33;24.10;51.10
67899;DHT22;54699;51.796;10.956;2023-07-24T12:53:00;24.10;50.90
67899;DHT22;54699;51.796;10.956;2023-07-24T12:55:28;24.10;51.00
67899;DHT22;54699;51.796;10.956;2023-07-24T12:57:55;24.10;50.90
67899;DHT22;54699;51.796;10.956;2023-07-24T13:00:23;24.10;50.80
67899;DHT22;54699;51.796;10.956;2023-07-24T13:02:50;24.10;50.70
67899;DHT22;54699;51.796;10.956;2023-07-24T13:05:20;24.10;50.60
67899;DHT22;54699;51.796;10.956;2023-07-24T13:07:48;24.10;50.50
67899;DHT22;54699;51.796;10.956;2023-07-24T13:10:15;24.10;50.30
67899;DHT22;54699;51.796;10.956;2023-07-24T13:12:44;24.10;50.40
67899;DHT22;54699;51.796;10.956;2023-07-24T13:15:11;24.10;50.40
67899;DHT22;54699;51.796;10.956;2023-07-24T13:17:38;24.10;50.40
67899;DHT22;54699;51.796;10.956;2023-07-24T13:20:06;24.10;50.40
67899;DHT22;54699;51.796;10.956;2023-07-24T13:22:34;24.10;50.50
67899;DHT22;54699;51.796;10.956;2023-07-24T13:25:02;24.10;50.70
67899;DHT22;54699;51.796;10.956;2023-07-24T13:27:30;24.10;50.80
67899;DHT22;54699;51.796;10.956;2023-07-24T13:29:57;24.20;50.90
67899;DHT22;54699;51.796;10.956;2023-07-24T13:32:24;24.20;51.20
67899;DHT22;54699;51.796;10.956;2023-07-24T13:34:51;24.20;51.40
67899;DHT22;54699;51.796;10.956;2023-07-24T13:37:18;24.20;51.30
67899;DHT22;54699;51.796;10.956;2023-07-24T13:39:45;24.20;51.60
67899;DHT22;54699;51.796;10.956;2023-07-24T13:42:13;24.20;51.30
67899;DHT22;54699;51.796;10.956;2023-07-24T13:44:40;24.20;51.40
67899;DHT22;54699;51.796;10.956;2023-07-24T13:47:07;24.20;51.30
67899;DHT22;54699;51.796;10.956;2023-07-24T13:49:34;24.20;52.00
67899;DHT22;54699;51.796;10.956;2023-07-24T13:52:03;24.20;51.30
67899;DHT22;54699;51.796;10.956;2023-07-24T13:54:30;24.30;51.20
67899;DHT22;54699;51.796;10.956;2023-07-24T13:56:57;24.20;51.00
67899;DHT22;54699;51.796;10.956;2023-07-24T13:59:26;24.20;51.30
67899;DHT22;54699;51.796;10.956;2023-07-24T14:01:53;24.30;51.30
67899;DHT22;54699;51.796;10.956;2023-07-24T14:04:20;24.20;51.20
67899;DHT22;54699;51.796;10.956;2023-07-24T14:06:46;24.20;51.40
67899;DHT22;54699;51.796;10.956;2023-07-24T14:09:13;24.20;51.60
67899;DHT22;54699;51.796;10.956;2023-07-24T14:11:40;24.20;51.30
67899;DHT22;54699;51.796;10.956;2023-07-24T14:14:07;24.20;51.00
67899;DHT22;54699;51.796;10.956;2023-07-24T14:16:36;24.20;51.00
67899;DHT22;54699;51.796;10.956;2023-07-24T14:19:03;24.20;50.90
67899;DHT22;54699;51.796;10.956;2023-07-24T14:21:30;24.20;51.10
67899;DHT22;54699;51.796;10.956;2023-07-24T14:23:57;24.20;51.40
67899;DHT22;54699;51.796;10.956;2023-07-24T14:26:24;24.30;51.70
67899;DHT22;54699;51.796;10.956;2023-07-24T14:28:52;24.30;51.90
67899;DHT22;54699;51.796;10.956;2023-07-24T14:31:19;24.30;52.40
67899;DHT22;54699;51.796;10.956;2023-07-24T14:33:48;24.30;52.50
67899;DHT22;54699;51.796;10.956;2023-07-24T14:36:15;24.30;51.40
67899;DHT22;54699;51.796;10.956;2023-07-24T14:38:42;24.30;52.20
67899;DHT22;54699;51.796;10.956;2023-07-24T14:41:09;24.30;52.10
67899;DHT22;54699;51.796;10.956;2023-07-24T14:43:39;24.30;52.00
67899;DHT22;54699;51.796;10.956;2023-07-24T14:46:06;24.30;52.10
67899;DHT22;54699;51.796;10.956;2023-07-24T14:48:33;24.30;51.80
67899;DHT22;54699;51.796;10.956;2023-07-24T14:51:01;24.30;51.70
67899;DHT22;54699;51.796;10.956;2023-07-24T14:53:29;24.30;51.70
67899;DHT22;54699;51.796;10.956;2023-07-24T14:55:56;24.40;51.80
67899;DHT22;54699;51.796;10.956;2023-07-24T14:58:23;24.40;51.70
67899;DHT22;54699;51.796;10.956;2023-07-24T15:00:50;24.40;51.70
67899;DHT22;54699;51.796;10.956;2023-07-24T15:03:17;24.40;51.70
67899;DHT22;54699;51.796;10.956;2023-07-24T15:05:44;24.40;51.70
67899;DHT22;54699;51.796;10.956;2023-07-24T15:08:12;24.40;51.70
67899;DHT22;54699;51.796;10.956;2023-07-24T15:10:39;24.40;51.70
67899;DHT22;54699;51.796;10.956;2023-07-24T15:13:06;24.40;51.70
67899;DHT22;54699;51.796;10.956;2023-07-24T15:15:35;24.40;51.70
67899;DHT22;54699;51.796;10.956;2023-07-24T15:18:02;24.40;51.80